Time;durP1;ratioP1;P1;durP2;ratioP2;P2;SDS_P1;SDS_P2;PMS_P1;PMS_P2;Temp;Humidity;BMP_temperature;BMP_pressure;BME280_temperature;BME280_humidity;BME280_pressure;Samples;Min_cycle;Max_cycle;Signal;HPM_P1;HPM_P2
2021/11/19 00:00:50;;;;;;;2.33;1.95;;;9.60;99.90;;;;;;5062335;28;20218;-81
2021/11/19 00:03:19;;;;;;;7.05;4.55;;;9.60;99.90;;;;;;5063297;28;20197;-80
2021/11/19 00:05:47;;;;;;;1.25;1.02;;;9.60;99.90;;;;;;5063992;28;20217;-81
2021/11/19 00:08:15;;;;;;;2.08;1.83;;;9.60;99.90;;;;;;5063732;28;20190;-80
2021/11/19 00:10:43;;;;;;;13.32;12.05;;;9.60;99.90;;;;;;5066961;28;20233;-80
2021/11/19 00:13:09;;;;;;;7.90;3.95;;;9.70;99.90;;;;;;5061773;28;20196;-81
2021/11/19 00:15:37;;;;;;;1.67;1.52;;;9.70;99.90;;;;;;5063406;28;20194;-81
2021/11/19 00:18:04;;;;;;;1.13;1.02;;;9.70;99.90;;;;;;5063020;28;20189;-81
2021/11/19 00:20:34;;;;;;;8.13;3.13;;;9.70;99.90;;;;;;5063038;28;20224;-81
2021/11/19 00:23:02;;;;;;;2.85;2.55;;;9.70;99.90;;;;;;5064950;28;20539;-81
2021/11/19 00:25:30;;;;;;;2.60;1.15;;;9.60;99.90;;;;;;5064180;28;20206;-80
2021/11/19 00:27:57;;;;;;;9.43;4.40;;;9.60;99.90;;;;;;5077965;28;20200;-81
2021/11/19 00:30:26;;;;;;;12.52;3.25;;;9.60;99.90;;;;;;5077785;28;20213;-79
2021/11/19 00:32:53;;;;;;;13.40;7.35;;;9.60;99.90;;;;;;5078166;28;20193;-81
2021/11/19 00:35:21;;;;;;;1.67;1.58;;;9.60;99.90;;;;;;5077343;28;20680;-80
2021/11/19 00:37:58;;;;;;;7.88;5.18;;;9.50;99.90;;;;;;5077965;28;20197;-80
2021/11/19 00:40:29;;;;;;;2.88;2.08;;;9.50;99.90;;;;;;5055938;28;20220;-80
2021/11/19 00:42:55;;;;;;;4.65;4.25;;;9.50;99.90;;;;;;5057899;28;20216;-81
2021/11/19 00:45:24;;;;;;;1.17;1.13;;;9.40;99.90;;;;;;5057731;28;20224;-81
2021/11/19 00:47:51;;;;;;;3.20;2.67;;;9.50;99.90;;;;;;5063524;28;20197;-80
2021/11/19 00:50:21;;;;;;;25.75;6.82;;;9.40;99.90;;;;;;5062240;28;20229;-79
2021/11/19 00:52:49;;;;;;;7.63;5.75;;;9.40;99.90;;;;;;5063373;28;20197;-81
2021/11/19 00:55:16;;;;;;;8.45;7.18;;;9.40;99.90;;;;;;5063544;28;20205;-80
2021/11/19 00:57:43;;;;;;;9.07;7.18;;;9.40;99.90;;;;;;5066020;28;20195;-81
2021/11/19 01:00:14;;;;;;;6.75;4.97;;;9.40;99.90;;;;;;5066165;28;20217;-80
2021/11/19 01:02:41;;;;;;;12.40;6.65;;;9.40;99.90;;;;;;5063853;28;20209;-79
2021/11/19 01:05:08;;;;;;;2.95;2.75;;;9.40;99.90;;;;;;5066078;28;20575;-81
2021/11/19 01:07:35;;;;;;;2.05;1.65;;;9.40;99.90;;;;;;5066322;28;20201;-79
2021/11/19 01:10:08;;;;;;;4.55;3.22;;;9.40;99.90;;;;;;5066883;28;20221;-81
2021/11/19 01:12:35;;;;;;;4.53;4.22;;;9.50;99.90;;;;;;5076875;28;20302;-81
2021/11/19 01:15:07;;;;;;;2.85;2.65;;;9.50;99.90;;;;;;5064737;28;20433;-80
2021/11/19 01:17:42;;;;;;;3.30;2.00;;;9.50;99.90;;;;;;5058927;28;20244;-79
2021/11/19 01:20:14;;;;;;;2.17;2.08;;;9.50;99.90;;;;;;5055898;28;20210;-80
2021/11/19 01:22:45;;;;;;;7.57;6.15;;;9.50;99.90;;;;;;5056273;28;20186;-81
2021/11/19 01:25:17;;;;;;;5.07;3.88;;;9.60;99.90;;;;;;5055995;28;20221;-80
2021/11/19 01:27:44;;;;;;;7.23;3.50;;;9.60;99.90;;;;;;5059330;28;20167;-80
2021/11/19 01:30:14;;;;;;;10.98;6.75;;;9.60;99.90;;;;;;5071588;28;20457;-80
2021/11/19 01:32:41;;;;;;;32.50;10.00;;;9.60;99.90;;;;;;5067074;28;20209;-82
2021/11/19 01:35:08;;;;;;;7.28;5.50;;;9.60;99.90;;;;;;5056198;28;20194;-82
2021/11/19 01:37:36;;;;;;;0.40;0.38;;;9.50;99.90;;;;;;5059220;28;20220;-80
2021/11/19 01:40:04;;;;;;;6.70;5.53;;;9.60;99.90;;;;;;5056076;28;20313;-81
2021/11/19 01:42:35;;;;;;;1.23;1.23;;;9.60;99.90;;;;;;5056413;28;20216;-80
2021/11/19 01:45:11;;;;;;;2.92;2.67;;;9.60;99.90;;;;;;5056510;28;20218;-81
2021/11/19 01:47:40;;;;;;;5.50;5.10;;;9.60;99.90;;;;;;5056113;28;20269;-79
2021/11/19 01:50:17;;;;;;;5.30;2.45;;;9.60;99.90;;;;;;5055900;28;20670;-80
2021/11/19 01:52:48;;;;;;;7.65;5.57;;;9.60;99.90;;;;;;5055446;28;20225;-80
2021/11/19 01:55:19;;;;;;;9.68;5.53;;;9.60;99.90;;;;;;5055743;28;20185;-81
2021/11/19 01:57:50;;;;;;;8.82;5.10;;;9.50;99.90;;;;;;5055199;28;20194;-79
2021/11/19 02:00:24;;;;;;;27.23;6.78;;;9.50;99.90;;;;;;5055454;28;20234;-80
2021/11/19 02:02:54;;;;;;;6.55;4.22;;;9.50;99.90;;;;;;5055899;28;20198;-80
2021/11/19 02:05:38;;;;;;;7.28;5.10;;;9.50;99.90;;;;;;5055009;28;20225;-79
2021/11/19 02:08:10;;;;;;;2.80;1.85;;;9.40;99.90;;;;;;5055871;28;20197;-80
2021/11/19 02:10:53;;;;;;;2.25;2.10;;;9.40;99.90;;;;;;5061091;28;20229;-80
2021/11/19 02:13:28;;;;;;;7.40;5.32;;;9.40;99.90;;;;;;5067176;28;20216;-80
2021/11/19 02:15:59;;;;;;;10.57;5.20;;;9.40;99.90;;;;;;5067268;28;20185;-79
2021/11/19 02:18:29;;;;;;;5.85;1.92;;;9.30;99.90;;;;;;5075722;28;20193;-79
2021/11/19 02:21:01;;;;;;;20.42;10.32;;;9.30;99.90;;;;;;5075200;28;20228;-80
2021/11/19 02:23:31;;;;;;;4.70;3.22;;;9.30;99.90;;;;;;5075130;28;20681;-78
2021/11/19 02:26:04;;;;;;;8.23;7.40;;;9.30;99.90;;;;;;5075255;28;20213;-79
2021/11/19 02:28:35;;;;;;;24.02;7.70;;;9.30;99.90;;;;;;5075274;28;20200;-80
2021/11/19 02:31:22;;;;;;;1.60;1.50;;;9.20;99.90;;;;;;5075371;28;20217;-80
2021/11/19 02:33:52;;;;;;;11.23;7.70;;;9.20;99.90;;;;;;5075110;28;20196;-78
2021/11/19 02:36:22;;;;;;;9.30;5.00;;;9.20;99.90;;;;;;5074023;28;20182;-79
2021/11/19 02:38:54;;;;;;;9.23;7.38;;;9.20;99.90;;;;;;5074685;28;20201;-79
2021/11/19 02:41:25;;;;;;;3.28;3.05;;;9.20;99.90;;;;;;5074191;28;20720;-79
2021/11/19 02:43:56;;;;;;;6.82;1.98;;;9.20;99.90;;;;;;5074483;28;20216;-80
2021/11/19 02:46:26;;;;;;;8.45;5.15;;;9.20;99.90;;;;;;5076119;28;20255;-79
2021/11/19 02:48:53;;;;;;;8.63;3.97;;;9.10;99.90;;;;;;5078494;28;20212;-80
2021/11/19 02:51:21;;;;;;;13.48;4.68;;;9.10;99.90;;;;;;5079328;28;20221;-79
2021/11/19 02:53:51;;;;;;;2.35;2.25;;;9.20;99.90;;;;;;5079182;28;20230;-79
2021/11/19 02:56:18;;;;;;;10.73;3.80;;;9.20;99.90;;;;;;5078125;28;20201;-80
2021/11/19 02:58:49;;;;;;;6.10;3.67;;;9.20;99.90;;;;;;5077795;28;20204;-79
2021/11/19 03:01:21;;;;;;;9.60;6.65;;;9.20;99.90;;;;;;5078776;28;20216;-80
2021/11/19 03:03:51;;;;;;;4.85;4.03;;;9.20;99.90;;;;;;5078597;28;20196;-79
2021/11/19 03:06:18;;;;;;;16.52;7.00;;;9.20;99.90;;;;;;5078416;28;20221;-79
2021/11/19 03:08:45;;;;;;;2.00;1.90;;;9.10;99.90;;;;;;5078212;28;20205;-79
2021/11/19 03:11:13;;;;;;;10.60;7.32;;;9.10;99.90;;;;;;5077629;28;20218;-79
2021/11/19 03:13:41;;;;;;;7.95;6.68;;;9.10;99.90;;;;;;5059886;28;20198;-78
2021/11/19 03:16:09;;;;;;;8.30;6.47;;;9.10;99.90;;;;;;5058080;28;20197;-79
2021/11/19 03:18:38;;;;;;;10.35;8.65;;;9.10;99.90;;;;;;5058510;28;20198;-78
2021/11/19 03:21:09;;;;;;;7.82;6.10;;;9.10;99.90;;;;;;5057847;28;20573;-79
2021/11/19 03:23:37;;;;;;;9.82;7.35;;;9.10;99.90;;;;;;5058014;28;20624;-79
2021/11/19 03:26:04;;;;;;;6.85;6.20;;;9.10;99.90;;;;;;5057942;28;20233;-79
2021/11/19 03:28:32;;;;;;;5.43;4.88;;;9.10;99.90;;;;;;5059276;28;20255;-79
2021/11/19 03:31:02;;;;;;;15.73;9.77;;;9.10;99.90;;;;;;5057876;28;20229;-79
2021/11/19 03:33:33;;;;;;;15.38;6.40;;;9.10;99.90;;;;;;5058346;28;20205;-78
2021/11/19 03:36:01;;;;;;;4.53;2.15;;;9.10;99.90;;;;;;5059822;28;20196;-79
2021/11/19 03:38:30;;;;;;;15.75;7.65;;;9.10;99.90;;;;;;5059446;28;20206;-78
2021/11/19 03:40:59;;;;;;;8.50;7.68;;;9.10;99.90;;;;;;5059362;28;20225;-78
2021/11/19 03:43:29;;;;;;;6.18;3.45;;;9.10;99.90;;;;;;5059160;28;20205;-80
2021/11/19 03:45:58;;;;;;;6.65;6.07;;;9.10;99.90;;;;;;5058483;28;20313;-79
2021/11/19 03:48:26;;;;;;;5.53;4.68;;;9.10;99.90;;;;;;5057927;28;20574;-79
2021/11/19 03:50:55;;;;;;;3.97;3.63;;;9.10;99.90;;;;;;5058468;28;20226;-79
2021/11/19 03:53:24;;;;;;;7.70;5.90;;;9.10;99.90;;;;;;5058978;28;20194;-80
2021/11/19 03:55:53;;;;;;;7.28;6.63;;;9.20;99.90;;;;;;5057378;28;20197;-79
2021/11/19 03:58:22;;;;;;;6.82;5.05;;;9.20;99.90;;;;;;5056830;28;20717;-80
2021/11/19 04:00:52;;;;;;;5.55;3.63;;;9.20;99.90;;;;;;5059087;28;20223;-80
2021/11/19 04:03:19;;;;;;;3.53;2.15;;;9.20;99.90;;;;;;5069789;28;20184;-79
2021/11/19 04:05:47;;;;;;;12.32;7.60;;;9.20;99.90;;;;;;5078636;28;20212;-79
2021/11/19 04:08:15;;;;;;;7.63;2.53;;;9.20;99.90;;;;;;5076345;28;20196;-78
2021/11/19 04:10:44;;;;;;;3.13;2.92;;;9.20;99.90;;;;;;5075333;28;20225;-79
2021/11/19 04:13:11;;;;;;;4.10;2.03;;;9.20;99.90;;;;;;5067391;28;20193;-78
2021/11/19 04:15:42;;;;;;;7.95;7.20;;;9.20;99.90;;;;;;5076222;28;20204;-79
2021/11/19 04:18:10;;;;;;;4.65;4.32;;;9.30;99.90;;;;;;5075999;28;20246;-78
2021/11/19 04:20:37;;;;;;;12.02;7.43;;;9.30;99.90;;;;;;5076051;28;20575;-77
2021/11/19 04:23:05;;;;;;;10.30;5.25;;;9.30;99.90;;;;;;5076494;28;20203;-79
2021/11/19 04:25:32;;;;;;;8.88;5.05;;;9.30;99.90;;;;;;5076188;28;20240;-79
2021/11/19 04:28:00;;;;;;;5.65;3.60;;;9.30;99.90;;;;;;5076424;28;20562;-78
2021/11/19 04:30:30;;;;;;;6.43;3.30;;;9.30;99.90;;;;;;5075710;28;20229;-78
2021/11/19 04:32:58;;;;;;;8.13;3.60;;;9.30;99.90;;;;;;5076708;28;20200;-78
2021/11/19 04:35:25;;;;;;;8.20;6.22;;;9.30;99.90;;;;;;5075408;28;20199;-78
2021/11/19 04:37:52;;;;;;;4.22;3.35;;;9.30;99.90;;;;;;5075777;28;20197;-78
2021/11/19 04:40:20;;;;;;;9.40;5.28;;;9.40;99.90;;;;;;5075808;28;20224;-78
2021/11/19 04:42:48;;;;;;;10.52;4.45;;;9.30;99.90;;;;;;5076309;28;20223;-79
2021/11/19 04:45:19;;;;;;;4.63;4.22;;;9.30;99.90;;;;;;5075948;28;20208;-77
2021/11/19 04:47:48;;;;;;;5.50;5.20;;;9.40;99.90;;;;;;5075774;28;20251;-78
2021/11/19 04:50:16;;;;;;;3.60;1.90;;;9.40;99.90;;;;;;5075871;28;20784;-77
2021/11/19 04:52:42;;;;;;;13.35;8.57;;;9.40;99.90;;;;;;5075828;28;20665;-77
2021/11/19 04:55:11;;;;;;;9.80;7.70;;;9.40;99.90;;;;;;5075598;28;20706;-79
2021/11/19 04:57:38;;;;;;;2.65;2.45;;;9.40;99.90;;;;;;5076947;28;20221;-79
2021/11/19 05:00:07;;;;;;;13.32;6.90;;;9.40;99.90;;;;;;5077440;28;20577;-78
2021/11/19 05:02:35;;;;;;;4.30;3.20;;;9.40;99.90;;;;;;5075432;28;20190;-78
2021/11/19 05:05:01;;;;;;;12.05;8.25;;;9.40;99.90;;;;;;5076172;28;20197;-77
2021/11/19 05:07:28;;;;;;;15.15;5.15;;;9.40;99.90;;;;;;5075146;28;20225;-80
2021/11/19 05:09:55;;;;;;;10.80;6.28;;;9.40;99.90;;;;;;5074619;28;20221;-77
2021/11/19 05:12:25;;;;;;;8.15;7.68;;;9.40;99.90;;;;;;5063997;28;20198;-77
2021/11/19 05:14:52;;;;;;;3.63;3.42;;;9.40;99.90;;;;;;5069798;28;20201;-78
2021/11/19 05:17:22;;;;;;;9.35;3.70;;;9.40;99.90;;;;;;5074469;28;20193;-77
2021/11/19 05:19:50;;;;;;;3.25;3.05;;;9.40;99.90;;;;;;5074846;28;20746;-78
2021/11/19 05:22:17;;;;;;;2.75;2.55;;;9.40;99.90;;;;;;5076396;28;20193;-79
2021/11/19 05:24:44;;;;;;;9.90;6.40;;;9.40;99.90;;;;;;5075316;28;20206;-79
2021/11/19 05:27:11;;;;;;;14.23;7.88;;;9.40;99.90;;;;;;5074451;28;20217;-78
2021/11/19 05:29:38;;;;;;;4.40;4.13;;;9.40;99.90;;;;;;5075594;28;20536;-79
2021/11/19 05:32:07;;;;;;;9.00;6.00;;;9.40;99.90;;;;;;5077558;28;20197;-80
2021/11/19 05:34:33;;;;;;;11.80;4.57;;;9.40;99.90;;;;;;5077462;28;20197;-79
2021/11/19 05:37:04;;;;;;;3.78;3.55;;;9.40;99.90;;;;;;5077974;28;20193;-79
2021/11/19 05:39:31;;;;;;;3.10;2.90;;;9.40;99.90;;;;;;5075752;28;20189;-79
2021/11/19 05:41:58;;;;;;;11.88;7.95;;;9.50;99.90;;;;;;5077170;28;20193;-79
2021/11/19 05:44:24;;;;;;;14.00;7.90;;;9.50;99.90;;;;;;5077017;28;20193;-79
2021/11/19 05:46:53;;;;;;;16.98;6.50;;;9.50;99.90;;;;;;5077125;28;20220;-79
2021/11/19 05:49:22;;;;;;;3.45;3.15;;;9.50;99.90;;;;;;5076952;28;20254;-79
2021/11/19 05:51:51;;;;;;;3.50;3.20;;;9.50;99.90;;;;;;5077270;28;20221;-79
2021/11/19 05:54:22;;;;;;;8.55;5.03;;;9.50;99.90;;;;;;5069015;28;20202;-79
2021/11/19 05:56:50;;;;;;;12.23;6.07;;;9.50;99.90;;;;;;5065211;28;20198;-79
2021/11/19 05:59:17;;;;;;;8.65;2.88;;;9.50;99.90;;;;;;5056956;28;20281;-78
2021/11/19 06:01:44;;;;;;;3.08;2.35;;;9.50;99.90;;;;;;5056772;28;20241;-79
2021/11/19 06:04:11;;;;;;;6.15;5.20;;;9.50;99.90;;;;;;5056591;28;20841;-79
2021/11/19 06:06:39;;;;;;;2.80;2.55;;;9.50;99.90;;;;;;5065371;28;20212;-79
2021/11/19 06:09:08;;;;;;;8.05;6.28;;;9.60;99.90;;;;;;5067694;28;20197;-78
2021/11/19 06:11:40;;;;;;;8.02;3.80;;;9.60;99.90;;;;;;5076289;28;20213;-80
2021/11/19 06:14:11;;;;;;;16.02;5.65;;;9.60;99.90;;;;;;5077163;28;20555;-79
2021/11/19 06:16:39;;;;;;;7.45;6.10;;;9.60;99.90;;;;;;5076081;28;20197;-77
2021/11/19 06:19:11;;;;;;;17.52;6.43;;;9.60;99.90;;;;;;5079216;28;20201;-78
2021/11/19 06:21:41;;;;;;;0.40;0.40;;;9.60;99.90;;;;;;5075390;28;20220;-79
2021/11/19 06:24:12;;;;;;;9.50;7.28;;;9.60;99.90;;;;;;5076478;28;20202;-79
2021/11/19 06:26:42;;;;;;;3.20;2.10;;;9.70;99.90;;;;;;5076364;28;20228;-80
2021/11/19 06:29:10;;;;;;;11.25;2.72;;;9.70;99.90;;;;;;5077014;28;20241;-79
2021/11/19 06:31:39;;;;;;;1.75;1.65;;;9.70;99.90;;;;;;5076089;28;20273;-80
2021/11/19 06:34:06;;;;;;;3.25;2.95;;;9.70;99.90;;;;;;5075887;28;20200;-79
2021/11/19 06:36:33;;;;;;;5.03;4.60;;;9.70;99.90;;;;;;5076790;28;20192;-79
2021/11/19 06:39:01;;;;;;;2.65;2.45;;;9.70;99.90;;;;;;5076970;28;20205;-80
2021/11/19 06:41:28;;;;;;;12.27;5.05;;;9.80;99.90;;;;;;5077931;28;20589;-80
2021/11/19 06:43:56;;;;;;;12.15;6.75;;;9.80;99.90;;;;;;5077723;28;20265;-79
2021/11/19 06:46:24;;;;;;;2.17;2.08;;;9.80;99.90;;;;;;5076915;28;20224;-79
2021/11/19 06:48:51;;;;;;;6.63;4.90;;;9.80;99.90;;;;;;5064194;28;20189;-80
2021/11/19 06:51:20;;;;;;;3.30;3.20;;;9.80;99.90;;;;;;5071941;28;20216;-80
2021/11/19 06:53:48;;;;;;;4.27;3.73;;;9.80;99.90;;;;;;5055931;28;20195;-79
2021/11/19 06:56:16;;;;;;;5.22;4.70;;;9.80;99.90;;;;;;5055230;28;20480;-78
2021/11/19 06:58:43;;;;;;;3.85;3.55;;;9.80;99.90;;;;;;5054829;28;20198;-78
2021/11/19 07:01:11;;;;;;;2.55;2.35;;;9.80;99.90;;;;;;5054436;28;20706;-78
2021/11/19 07:03:38;;;;;;;11.13;7.13;;;9.80;99.90;;;;;;5054279;28;20681;-79
2021/11/19 07:06:06;;;;;;;0.40;0.40;;;9.80;99.90;;;;;;5059680;28;20192;-78
2021/11/19 07:08:33;;;;;;;13.60;7.15;;;9.90;99.90;;;;;;5075218;28;20217;-79
2021/11/19 07:11:03;;;;;;;16.20;6.78;;;9.90;99.90;;;;;;5074680;28;20229;-79
2021/11/19 07:13:30;;;;;;;21.65;8.95;;;9.90;99.90;;;;;;5074517;28;20205;-79
2021/11/19 07:15:57;;;;;;;13.13;6.90;;;9.90;99.90;;;;;;5066218;28;20201;-79
2021/11/19 07:18:25;;;;;;;9.00;6.57;;;9.80;99.90;;;;;;5066481;28;20195;-78
2021/11/19 07:20:53;;;;;;;5.28;2.05;;;9.90;99.90;;;;;;5062130;28;20863;-80
2021/11/19 07:23:21;;;;;;;10.23;7.38;;;9.90;99.90;;;;;;5053721;28;20201;-79
2021/11/19 07:25:48;;;;;;;8.32;6.53;;;9.90;99.90;;;;;;5054358;28;20197;-78
2021/11/19 07:28:17;;;;;;;11.88;7.43;;;9.90;99.90;;;;;;5054481;28;20282;-80
2021/11/19 07:30:47;;;;;;;11.02;9.23;;;9.90;99.90;;;;;;5054089;28;20297;-78
2021/11/19 07:33:14;;;;;;;9.38;5.25;;;9.90;99.90;;;;;;5054759;28;20196;-78
2021/11/19 07:35:43;;;;;;;8.18;3.95;;;9.90;99.90;;;;;;5060762;28;20191;-79
2021/11/19 07:38:11;;;;;;;7.40;6.10;;;9.90;99.90;;;;;;5058793;28;20261;-78
2021/11/19 07:40:40;;;;;;;6.30;5.85;;;9.90;99.90;;;;;;5058037;28;20215;-79
2021/11/19 07:43:07;;;;;;;3.60;3.25;;;9.90;99.90;;;;;;5061248;28;20201;-79
2021/11/19 07:45:37;;;;;;;4.47;1.00;;;9.90;99.90;;;;;;5065396;28;20353;-80
2021/11/19 07:48:04;;;;;;;12.52;7.18;;;9.90;99.90;;;;;;5059745;28;20207;-79
2021/11/19 07:50:32;;;;;;;9.07;6.25;;;10.00;99.90;;;;;;5061532;28;20225;-79
2021/11/19 07:53:00;;;;;;;0.40;0.30;;;9.90;99.90;;;;;;5074549;28;20191;-79
2021/11/19 07:55:27;;;;;;;10.65;6.18;;;9.90;99.90;;;;;;5057218;28;20191;-79
2021/11/19 07:57:54;;;;;;;9.05;6.15;;;9.90;99.90;;;;;;5057554;28;20205;-80
2021/11/19 08:00:26;;;;;;;10.45;7.32;;;9.90;99.90;;;;;;5056926;28;20595;-79
2021/11/19 08:02:53;;;;;;;10.97;5.30;;;10.00;99.90;;;;;;5056351;28;20669;-79
2021/11/19 08:05:21;;;;;;;1.98;1.88;;;9.90;99.90;;;;;;5056595;28;20444;-80
2021/11/19 08:07:48;;;;;;;3.55;3.35;;;10.00;99.90;;;;;;5056928;28;20296;-79
2021/11/19 08:10:18;;;;;;;5.10;4.68;;;9.90;99.90;;;;;;5055645;28;20214;-79
2021/11/19 08:12:45;;;;;;;13.45;8.38;;;9.90;99.90;;;;;;5059933;28;20193;-77
2021/11/19 08:15:14;;;;;;;3.53;3.33;;;9.90;99.90;;;;;;5063643;28;20259;-80
2021/11/19 08:17:44;;;;;;;0.95;0.95;;;9.90;99.90;;;;;;5064579;28;20575;-79
2021/11/19 08:20:15;;;;;;;16.52;8.98;;;9.90;99.90;;;;;;5064997;28;20241;-79
2021/11/19 08:22:42;;;;;;;14.45;4.60;;;9.90;99.90;;;;;;5073219;28;20312;-79
2021/11/19 08:25:10;;;;;;;2.30;2.20;;;9.90;99.90;;;;;;5074516;28;20190;-79
2021/11/19 08:27:40;;;;;;;8.27;4.53;;;9.90;99.90;;;;;;5086666;28;20221;-79
2021/11/19 08:30:12;;;;;;;6.57;5.25;;;10.00;99.90;;;;;;5086479;28;20241;-79
2021/11/19 08:32:38;;;;;;;4.72;4.20;;;9.90;99.90;;;;;;5086347;28;20196;-79
2021/11/19 08:35:06;;;;;;;7.72;5.53;;;10.00;99.90;;;;;;5085820;28;20203;-79
2021/11/19 08:37:33;;;;;;;3.70;3.35;;;10.00;99.90;;;;;;5085391;28;20193;-79
2021/11/19 08:39:59;;;;;;;6.45;5.90;;;10.00;99.90;;;;;;5085851;28;20218;-79
2021/11/19 08:42:27;;;;;;;7.97;5.05;;;10.00;99.90;;;;;;5084992;28;20205;-79
2021/11/19 08:44:55;;;;;;;7.80;4.50;;;9.90;99.90;;;;;;5085002;28;20282;-78
2021/11/19 08:47:24;;;;;;;6.70;6.07;;;10.00;99.90;;;;;;5085562;28;20460;-79
2021/11/19 08:49:52;;;;;;;8.25;4.85;;;10.00;99.90;;;;;;5085638;28;20210;-79
2021/11/19 08:52:22;;;;;;;5.47;3.80;;;10.00;99.90;;;;;;5085460;28;20247;-79
2021/11/19 08:54:50;;;;;;;9.23;4.38;;;10.00;99.90;;;;;;5080060;28;20217;-79
2021/11/19 08:57:24;;;;;;;6.47;2.15;;;10.00;99.90;;;;;;5079020;28;20197;-79
2021/11/19 08:59:53;;;;;;;2.97;2.67;;;10.00;99.90;;;;;;5079210;28;20225;-78
2021/11/19 09:02:25;;;;;;;5.30;4.13;;;10.00;99.90;;;;;;5078959;28;20206;-79
2021/11/19 09:04:52;;;;;;;8.93;4.93;;;10.10;99.90;;;;;;5070683;28;20194;-79
2021/11/19 09:07:20;;;;;;;2.75;2.53;;;10.10;99.90;;;;;;5070594;28;20221;-78
2021/11/19 09:09:48;;;;;;;1.17;1.10;;;10.20;99.90;;;;;;5079448;28;20213;-79
2021/11/19 09:12:17;;;;;;;3.15;1.50;;;10.20;99.90;;;;;;5079784;28;20190;-79
2021/11/19 09:14:44;;;;;;;18.55;6.57;;;10.20;99.90;;;;;;5079292;28;20251;-78
2021/11/19 09:17:18;;;;;;;12.15;4.80;;;10.30;99.90;;;;;;5079419;28;20194;-78
2021/11/19 09:19:54;;;;;;;3.08;2.78;;;10.30;99.90;;;;;;5078534;28;20185;-77
2021/11/19 09:22:29;;;;;;;0.73;0.73;;;10.30;99.90;;;;;;5079624;28;20197;-79
2021/11/19 09:24:56;;;;;;;13.57;5.68;;;10.30;99.90;;;;;;5077894;28;20189;-77
2021/11/19 09:27:23;;;;;;;2.88;1.75;;;10.30;99.90;;;;;;5078205;28;20224;-79
2021/11/19 09:29:52;;;;;;;6.57;5.40;;;10.30;99.90;;;;;;5066896;28;20640;-78
2021/11/19 09:32:20;;;;;;;5.38;4.85;;;10.30;99.90;;;;;;5059800;28;20310;-78
2021/11/19 09:34:51;;;;;;;0.45;0.45;;;10.30;99.90;;;;;;5060330;28;20204;-79
2021/11/19 09:37:19;;;;;;;7.50;5.18;;;10.40;99.90;;;;;;5067802;28;20175;-77
2021/11/19 09:39:48;;;;;;;2.40;2.15;;;10.50;99.90;;;;;;5059289;28;20202;-78
2021/11/19 09:42:24;;;;;;;2.72;2.55;;;10.50;99.90;;;;;;5059378;28;20213;-78
2021/11/19 09:45:21;;;;;;;4.38;4.03;;;10.50;99.90;;;;;;5060184;28;20547;-78
2021/11/19 09:48:16;;;;;;;0.40;0.38;;;10.60;99.90;;;;;;5059887;28;20583;-79
2021/11/19 09:51:34;;;;;;;0.85;0.82;;;10.60;99.90;;;;;;5058682;28;20214;-79
2021/11/19 09:54:41;;;;;;;5.82;4.05;;;10.60;99.90;;;;;;5058963;28;20232;-78
2021/11/19 09:57:36;;;;;;;0.40;0.40;;;10.70;99.90;;;;;;5067082;28;20186;-79
2021/11/19 10:00:15;;;;;;;8.93;5.57;;;10.70;99.90;;;;;;5059530;28;20210;-79
2021/11/19 10:03:37;;;;;;;0.57;0.57;;;10.70;99.90;;;;;;5059373;28;20277;-77
2021/11/19 10:06:08;;;;;;;0.50;0.47;;;10.80;99.90;;;;;;5022270;28;20445;-79
2021/11/19 10:08:48;;;;;;;3.25;2.92;;;10.80;99.90;;;;;;5059338;28;20210;-78
2021/11/19 10:11:20;;;;;;;9.20;6.20;;;10.80;99.90;;;;;;5081487;22;20201;-78
2021/11/19 10:14:07;;;;;;;7.38;2.35;;;10.70;99.90;;;;;;5070403;28;20202;-80
2021/11/19 10:16:47;;;;;;;4.20;3.95;;;10.80;99.90;;;;;;5080047;28;20188;-80
2021/11/19 10:19:20;;;;;;;3.33;3.03;;;10.80;99.90;;;;;;5081861;28;20277;-79
2021/11/19 10:21:54;;;;;;;3.45;2.83;;;10.80;99.90;;;;;;5082258;28;20649;-81
2021/11/19 10:24:38;;;;;;;4.32;4.00;;;10.80;99.90;;;;;;5079404;28;20201;-79
2021/11/19 10:27:07;;;;;;;1.02;1.02;;;10.80;99.90;;;;;;5078743;28;20174;-81
2021/11/19 10:29:42;;;;;;;2.67;1.27;;;10.80;99.90;;;;;;5080763;28;20585;-80
2021/11/19 10:32:11;;;;;;;0.68;0.68;;;10.80;99.90;;;;;;5082756;28;20236;-82
2021/11/19 10:34:45;;;;;;;9.82;6.85;;;10.90;99.90;;;;;;5082108;28;20197;-79
2021/11/19 10:37:54;;;;;;;8.87;6.33;;;10.90;99.90;;;;;;5082355;28;20174;-81
2021/11/19 10:40:44;;;;;;;7.88;3.10;;;11.00;99.90;;;;;;5082185;28;20522;-81
2021/11/19 10:43:33;;;;;;;0.40;0.32;;;11.00;99.90;;;;;;5081426;28;20214;-80
2021/11/19 10:46:33;;;;;;;4.00;3.00;;;11.00;99.90;;;;;;5082461;28;20178;-78
2021/11/19 10:49:15;;;;;;;30.87;4.77;;;11.10;99.90;;;;;;5081468;28;20695;-81
2021/11/19 10:51:59;;;;;;;0.83;0.83;;;11.10;99.90;;;;;;5082069;28;20452;-80
2021/11/19 10:55:01;;;;;;;1.38;1.38;;;11.10;99.90;;;;;;5076437;28;20440;-80
2021/11/19 10:58:00;;;;;;;9.20;3.22;;;11.20;99.90;;;;;;5081561;28;20194;-81
2021/11/19 11:00:37;;;;;;;4.45;4.13;;;11.20;99.90;;;;;;5080632;28;20202;-82
2021/11/19 11:03:10;;;;;;;4.30;3.88;;;11.20;99.90;;;;;;5080646;28;20225;-81
2021/11/19 11:05:39;;;;;;;8.60;3.20;;;11.20;99.90;;;;;;5079972;28;20654;-79
2021/11/19 11:08:15;;;;;;;5.03;3.13;;;11.20;99.90;;;;;;5076866;28;20214;-80
2021/11/19 11:10:49;;;;;;;0.75;0.75;;;11.20;99.90;;;;;;5082563;28;20194;-80
2021/11/19 11:13:38;;;;;;;4.37;4.07;;;11.20;99.90;;;;;;5083646;28;20222;-80
2021/11/19 11:16:09;;;;;;;6.38;5.70;;;11.20;99.90;;;;;;5082955;28;20416;-80
2021/11/19 11:18:38;;;;;;;6.38;4.10;;;11.20;99.90;;;;;;5084527;28;20193;-80
2021/11/19 11:21:18;;;;;;;2.67;2.57;;;11.20;99.90;;;;;;5083585;28;20202;-81
2021/11/19 11:24:10;;;;;;;3.23;2.73;;;11.20;99.90;;;;;;5092867;28;20443;-80
2021/11/19 11:26:44;;;;;;;1.98;1.58;;;11.30;99.90;;;;;;5083634;28;20513;-80
2021/11/19 11:29:34;;;;;;;2.67;0.95;;;11.30;99.90;;;;;;5083230;28;20245;-81
2021/11/19 11:32:11;;;;;;;3.37;3.17;;;11.40;99.90;;;;;;5082876;28;20214;-78
2021/11/19 11:34:58;;;;;;;1.90;1.27;;;11.40;99.90;;;;;;5081283;28;20444;-79
2021/11/19 11:37:30;;;;;;;6.70;1.83;;;11.40;99.90;;;;;;5091600;28;20441;-81
2021/11/19 11:40:03;;;;;;;5.23;2.93;;;11.40;99.90;;;;;;5089134;28;20435;-80
2021/11/19 11:42:37;;;;;;;5.85;3.58;;;11.40;99.90;;;;;;5103690;28;20455;-81
2021/11/19 11:45:24;;;;;;;0.75;0.75;;;11.40;99.90;;;;;;5104252;28;20182;-80
2021/11/19 11:48:10;;;;;;;10.37;6.77;;;11.30;99.90;;;;;;5100476;28;20216;-78
2021/11/19 11:50:45;;;;;;;1.15;1.15;;;11.30;99.90;;;;;;5099101;28;20451;-81
2021/11/19 11:53:14;;;;;;;0.93;0.93;;;11.40;99.90;;;;;;5082437;28;20225;-80
2021/11/19 11:55:44;;;;;;;1.90;1.80;;;11.50;99.90;;;;;;5083091;28;20209;-81
2021/11/19 11:58:28;;;;;;;2.15;1.98;;;11.40;99.90;;;;;;5084135;28;20197;-80
2021/11/19 12:01:05;;;;;;;0.60;0.60;;;11.50;99.90;;;;;;5082965;28;20182;-79
2021/11/19 12:03:41;;;;;;;0.60;0.60;;;11.50;99.90;;;;;;5083892;28;20194;-80
2021/11/19 12:06:15;;;;;;;3.15;3.00;;;11.50;99.90;;;;;;5082780;28;20194;-80
2021/11/19 12:08:53;;;;;;;3.97;3.65;;;11.50;99.90;;;;;;5082963;28;20221;-80
2021/11/19 12:11:40;;;;;;;6.40;5.80;;;11.50;99.90;;;;;;5082762;28;21133;-80
2021/11/19 12:14:23;;;;;;;4.10;3.70;;;11.50;99.90;;;;;;5083540;28;20436;-80
2021/11/19 12:17:00;;;;;;;4.50;4.10;;;11.50;99.90;;;;;;5083056;28;20198;-79
2021/11/19 12:19:38;;;;;;;0.50;0.50;;;11.60;99.90;;;;;;5081566;28;20189;-80
2021/11/19 12:22:11;;;;;;;5.57;5.03;;;11.60;99.90;;;;;;5078441;28;20460;-77
2021/11/19 12:24:43;;;;;;;1.77;1.42;;;11.70;99.90;;;;;;5076409;28;20420;-78
2021/11/19 12:27:27;;;;;;;0.87;0.80;;;11.70;99.90;;;;;;5083261;28;20182;-80
2021/11/19 12:30:00;;;;;;;4.30;3.90;;;11.70;99.90;;;;;;5080240;28;20464;-80
2021/11/19 12:32:32;;;;;;;3.60;3.30;;;11.80;99.90;;;;;;5080382;28;20290;-81
2021/11/19 12:35:03;;;;;;;8.50;2.13;;;11.80;99.90;;;;;;5081804;28;20439;-78
2021/11/19 12:37:36;;;;;;;5.67;5.27;;;11.90;99.90;;;;;;5081350;28;20440;-82
2021/11/19 12:40:12;;;;;;;0.90;0.90;;;11.90;99.90;;;;;;5088316;28;20519;-81
2021/11/19 12:42:44;;;;;;;14.13;8.20;;;11.90;99.90;;;;;;5080769;28;20460;-80
2021/11/19 12:45:16;;;;;;;1.70;1.60;;;11.90;99.90;;;;;;5081236;28;20429;-80
2021/11/19 12:48:19;;;;;;;10.13;4.45;;;11.80;99.90;;;;;;5081590;28;20467;-80
2021/11/19 12:50:49;;;;;;;3.45;3.15;;;11.80;99.90;;;;;;5080497;28;20197;-80
2021/11/19 12:53:37;;;;;;;7.33;4.97;;;11.80;99.90;;;;;;5075254;28;20575;-79
2021/11/19 12:56:14;;;;;;;1.70;1.40;;;11.70;99.90;;;;;;5080447;28;20431;-78
2021/11/19 12:58:44;;;;;;;1.85;1.77;;;11.60;99.90;;;;;;5082457;28;20966;-81
2021/11/19 13:01:42;;;;;;;1.27;1.10;;;11.60;99.90;;;;;;5080821;28;20226;-80
2021/11/19 13:04:32;;;;;;;4.63;2.63;;;11.60;99.90;;;;;;5065863;28;20444;-80
2021/11/19 13:07:07;;;;;;;5.40;1.50;;;11.60;99.90;;;;;;5082172;28;20201;-80
2021/11/19 13:09:48;;;;;;;0.50;0.40;;;11.60;99.90;;;;;;5088110;28;20471;-80
2021/11/19 13:12:32;;;;;;;0.80;0.80;;;11.60;99.90;;;;;;5080313;28;20475;-80
2021/11/19 13:15:25;;;;;;;1.00;1.00;;;11.70;99.90;;;;;;5080742;28;20308;-79